Detall de PIREP

Printer-friendly versionPDF version

[2010/12/11 11:47:00]
Flight IATA:CT2107
Pilot Number:026
Company ICAO:CAT
Aircraft Type:DC85/A
PAX:136
Departing Airport: LEMD
Destination Airport: LEVC
Alternate Airport:LEPA
Online: VATSIM
Route:NANDO W107 CLS
Flight Level:FL180
No Slew and time accel
No pause
Crash detect
Detect pilot in Cockpit between each 30 and 45 minutes
11:47 Zero fuel Weight: 178403 Lbs, Fuel Weight: 22008 Lbs
11:47 VATSIM:LEMD 111130Z VRB01KT 9999 FEW007 10/08 Q1025 NOSIG
11:47 VATSIM:LEVC 111130Z 00000KT 9999 FEW030 16/10 Q1026 NOSIG
11:47 VOICE CATALONIAN / LEVC HUB ROUTE CT2107
11:52 Parking Brakes off
11:59 Take-off
11:59 Take off Weight: 199415 Lbs
11:59 Wind: 093º @ 003 Knots Heading: 000º
11:59 POS N40º 30´ 29´´ W003º 34´ 28´´
11:59 Flaps:3 at 168 Knots
11:59 Gear Up: 169 Knots
12:00 Flaps:2 at 196 Knots
12:01 Flaps:1 at 248 Knots
12:01 Flaps:0 at 228 Knots
12:06 TOC
12:06Fuel Weight: 18396 Lb
12:14 Wind:131º@007 Knots Heading: 086º Ground Speed: 407 Knots Altitude 18323 ft
12:19 TOD
12:19 Fuel Weight: 15472 Lb
12:29 Wind:129º@001 Knots Heading: 174º Ground Speed: 239 Knots Altitude 7309 ft
12:39 Gear Down: 195 Knots
12:39 Flaps:1 at 195 Knots
12:40 Flaps:2 at 154 Knots
12:41 Flaps:3 at 130 Knots
12:42 Flaps:4 at 159 Knots
12:42 Flaps:5 at 166 Knots
12:43 TouchDown:Rate -351 ft/min Speed: 141 Knots
12:43 VATSIM:LEVC 111230Z VRB02KT 9999 FEW030 17/09 Q1025 NOSIG
12:43 Land
12:43 Wind:146º@003 Knots
12:43 Heading: 295º
12:43 Flight Duration: 00:44
12:43 Landing Weight: 191803 Lbs
12:43 POS N39º 29´ 30´´ W000º 29´ 17´´
12:48 Parking brakes on
12:48 Block to Block Duration: 00:57
12:48 Final Fuel: 12910 Lbls
12:48 Spent Fuel: 9098 Lbls
12:48 Flight Length: 225 NM
12:48 TOD Land Length: 99 NM

Exportar CSV

Powered by Drupal - Modified by Danger4k